createdAt,value
2018-04-10T00:00:37.763Z,54.60
2018-04-10T00:03:06.007Z,55.10
2018-04-10T00:05:34.286Z,53.90
2018-04-10T00:08:02.531Z,55.80
2018-04-10T00:10:30.778Z,57.70
2018-04-10T00:12:59.347Z,56.30
2018-04-10T00:15:27.599Z,56.50
2018-04-10T00:17:55.847Z,55.90
2018-04-10T00:20:24.191Z,55.70
2018-04-10T00:22:52.483Z,55.90
2018-04-10T00:25:20.734Z,55.00
2018-04-10T00:27:49.006Z,55.20
2018-04-10T00:30:17.260Z,56.20
2018-04-10T00:32:45.507Z,55.30
2018-04-10T00:35:15.113Z,56.50
2018-04-10T00:37:43.343Z,56.50
2018-04-10T00:40:11.595Z,56.30
2018-04-10T00:42:40.219Z,56.20
2018-04-10T00:45:08.475Z,58.20
2018-04-10T00:47:36.727Z,56.80
2018-04-10T00:50:05.066Z,56.40
2018-04-10T00:52:33.306Z,57.80
2018-04-10T00:55:01.620Z,58.30
2018-04-10T00:57:29.883Z,59.40
2018-04-10T00:59:58.183Z,57.30
2018-04-10T01:02:26.441Z,60.50
2018-04-10T01:04:54.767Z,59.60
2018-04-10T01:07:23.020Z,58.50
2018-04-10T01:09:51.270Z,57.90
2018-04-10T01:12:19.543Z,58.90
2018-04-10T01:14:48.187Z,58.20
2018-04-10T01:17:17.207Z,58.50
2018-04-10T01:19:45.482Z,58.50
2018-04-10T01:22:13.732Z,58.50
2018-04-10T01:24:41.987Z,58.10
2018-04-10T01:27:10.736Z,58.70
2018-04-10T01:29:38.983Z,57.60
2018-04-10T01:32:07.235Z,58.10
2018-04-10T01:34:35.515Z,57.70
2018-04-10T01:37:04.531Z,57.90
2018-04-10T01:39:32.789Z,57.80
2018-04-10T01:42:01.067Z,58.00
2018-04-10T01:44:30.552Z,58.70
2018-04-10T01:46:58.800Z,58.30
2018-04-10T01:49:27.374Z,58.50
2018-04-10T01:51:55.630Z,58.90
2018-04-10T01:54:23.884Z,59.10
2018-04-10T01:56:52.171Z,59.30
2018-04-10T01:59:21.192Z,59.70
2018-04-10T02:01:49.530Z,59.60
2018-04-10T02:04:18.571Z,58.60
2018-04-10T02:06:46.912Z,58.50
2018-04-10T02:09:15.963Z,59.00
2018-04-10T02:17:44.371Z,58.30
2018-04-10T02:20:12.654Z,58.50
2018-04-10T02:22:41.055Z,58.30
2018-04-10T02:25:09.325Z,58.90
2018-04-10T02:27:37.583Z,58.90
2018-04-10T02:30:05.961Z,60.40
2018-04-10T02:32:34.207Z,63.80
2018-04-10T02:35:02.715Z,62.50
2018-04-10T02:37:30.975Z,62.10
2018-04-10T02:39:59.225Z,62.20
2018-04-10T02:42:27.503Z,61.50
2018-04-10T02:44:56.520Z,61.40
2018-04-10T02:47:25.626Z,61.40
2018-04-10T02:49:53.914Z,62.20
2018-04-10T02:52:22.168Z,60.50
2018-04-10T02:54:50.418Z,61.70
2018-04-10T02:57:19.047Z,61.50
2018-04-10T02:59:47.307Z,62.80
2018-04-10T03:02:15.551Z,63.30
2018-04-10T03:04:43.840Z,62.20
2018-04-10T03:07:12.868Z,63.80
2018-04-10T03:09:41.115Z,63.70
2018-04-10T03:12:09.407Z,71.90
2018-04-10T03:14:37.659Z,66.80
2018-04-10T03:17:06.679Z,68.50
2018-04-10T03:19:35.243Z,68.50
2018-04-10T03:22:03.496Z,67.50
2018-04-10T03:24:31.740Z,68.10
2018-04-10T03:27:00.029Z,69.50
2018-04-10T03:29:28.267Z,68.80
2018-04-10T03:31:56.525Z,66.80
2018-04-10T03:34:24.815Z,66.10
2018-04-10T03:36:53.067Z,64.80
2018-04-10T03:39:22.088Z,64.80
2018-04-10T03:41:50.475Z,64.70
2018-04-10T03:44:18.727Z,65.20
2018-04-10T03:46:46.979Z,64.60
2018-04-10T03:49:16.022Z,65.80
2018-04-10T03:51:44.279Z,65.70
2018-04-10T03:54:13.291Z,66.80
2018-04-10T03:56:41.579Z,66.80
2018-04-10T03:59:09.823Z,66.80
2018-04-10T04:01:38.076Z,66.40
2018-04-10T04:04:06.829Z,66.40
2018-04-10T04:06:35.084Z,64.80
2018-04-10T04:09:03.332Z,65.00
2018-04-10T04:11:31.961Z,65.10
2018-04-10T04:14:00.215Z,64.60
2018-04-10T04:16:40.702Z,65.00
2018-04-10T04:19:20.874Z,69.20
2018-04-10T04:22:08.184Z,69.10
2018-04-10T04:24:36.438Z,73.80
2018-04-10T04:27:04.687Z,72.60
2018-04-10T04:29:33.323Z,68.20
2018-04-10T04:32:01.657Z,71.20
2018-04-10T04:34:30.676Z,70.70
2018-04-10T04:36:59.374Z,70.60
2018-04-10T04:39:27.634Z,70.90
2018-04-10T04:41:56.257Z,73.80
2018-04-10T04:44:25.127Z,72.10
2018-04-10T04:46:53.395Z,70.30
2018-04-10T04:49:21.668Z,72.40
2018-04-10T04:51:50.271Z,72.10
2018-04-10T04:54:18.539Z,73.90
2018-04-10T04:56:46.785Z,78.80
2018-04-10T04:59:15.406Z,74.30
2018-04-10T05:01:43.655Z,72.90
2018-04-10T05:04:11.907Z,71.70
2018-04-10T05:06:40.555Z,72.30
2018-04-10T05:09:08.795Z,74.20
2018-04-10T05:11:37.051Z,75.40
2018-04-10T05:14:05.616Z,75.50
2018-04-10T05:16:33.867Z,76.50
2018-04-10T05:19:02.119Z,76.10
2018-04-10T05:21:30.703Z,76.10
2018-04-10T05:23:59.155Z,75.90
2018-04-10T05:26:28.175Z,75.90
2018-04-10T05:28:56.895Z,75.90
2018-04-10T05:31:25.142Z,78.10
2018-04-10T05:33:53.386Z,74.30
2018-04-10T05:36:21.983Z,73.90
2018-04-10T05:38:50.235Z,74.90
2018-04-10T05:41:18.483Z,73.60
2018-04-10T05:43:47.156Z,73.00
2018-04-10T05:46:15.407Z,74.80
2018-04-10T05:48:43.659Z,76.20
2018-04-10T05:51:12.306Z,79.10
2018-04-10T05:53:40.552Z,78.60
2018-04-10T05:56:08.799Z,77.90
2018-04-10T05:58:37.338Z,76.70
2018-04-10T06:01:05.588Z,78.50
2018-04-10T06:03:33.896Z,79.90
2018-04-10T06:06:02.567Z,77.40
2018-04-10T06:08:30.824Z,76.50
2018-04-10T06:10:59.075Z,77.20
2018-04-10T06:13:28.016Z,75.70
2018-04-10T06:15:56.319Z,74.40
2018-04-10T06:18:24.581Z,76.60
2018-04-10T06:20:53.155Z,77.20
2018-04-10T06:23:21.411Z,77.10
2018-04-10T06:25:50.171Z,76.40
2018-04-10T06:28:19.510Z,82.10
2018-04-10T06:30:47.767Z,82.30
2018-04-10T06:33:16.015Z,80.60
2018-04-10T06:35:44.772Z,79.90
2018-04-10T06:38:13.015Z,79.50
2018-04-10T06:40:41.268Z,80.20
2018-04-10T06:43:09.861Z,81.50
2018-04-10T06:45:38.107Z,81.10
2018-04-10T06:48:06.361Z,81.20
2018-04-10T06:50:34.922Z,82.80
2018-04-10T06:53:03.179Z,81.60
2018-04-10T06:55:31.635Z,81.70
2018-04-10T06:58:00.990Z,81.00
2018-04-10T07:00:29.247Z,80.00
2018-04-10T07:02:57.523Z,79.00
2018-04-10T07:05:26.119Z,78.10
2018-04-10T07:07:54.609Z,77.60
2018-04-10T07:10:22.834Z,75.90
2018-04-10T07:12:51.875Z,76.00
2018-04-10T07:15:20.127Z,75.90
2018-04-10T07:17:48.382Z,76.40
2018-04-10T07:20:17.016Z,76.40
2018-04-10T07:22:45.351Z,76.40
2018-04-10T07:25:14.367Z,77.60
2018-04-10T07:27:42.970Z,77.50
2018-04-10T07:30:11.223Z,74.70
2018-04-10T07:32:39.475Z,75.50
2018-04-10T07:35:08.519Z,74.30
2018-04-10T07:37:36.792Z,74.20
2018-04-10T07:40:05.040Z,75.60
2018-04-10T07:42:33.655Z,74.50
2018-04-10T07:45:01.903Z,74.40
2018-04-10T07:47:30.155Z,73.50
2018-04-10T07:49:58.441Z,74.10
2018-04-10T07:52:27.459Z,73.30
2018-04-10T07:54:55.711Z,73.10
2018-04-10T07:57:23.984Z,73.00
2018-04-10T07:59:52.235Z,71.80
2018-04-10T08:02:20.500Z,72.50
2018-04-10T08:04:49.138Z,71.50
2018-04-10T08:07:17.322Z,71.70
2018-04-10T08:09:45.580Z,70.30
2018-04-10T08:12:13.859Z,69.80
2018-04-10T08:14:42.882Z,68.10
2018-04-10T08:17:11.129Z,68.10
2018-04-10T08:19:39.401Z,67.20
2018-04-10T08:22:07.648Z,67.30
2018-04-10T08:24:36.027Z,67.30
2018-04-10T08:27:04.573Z,66.30
2018-04-10T08:29:33.126Z,65.30
2018-04-10T08:32:02.147Z,65.70
2018-04-10T08:34:30.515Z,65.60
2018-04-10T08:36:58.763Z,65.30
2018-04-10T08:39:27.011Z,64.70
2018-04-10T08:41:55.291Z,64.80
2018-04-10T08:44:23.544Z,64.70
2018-04-10T08:46:51.804Z,63.80
2018-04-10T08:49:20.276Z,63.80
2018-04-10T08:51:48.528Z,63.30
2018-04-10T08:54:17.547Z,62.70
2018-04-10T08:56:45.824Z,62.80
2018-04-10T08:59:14.079Z,63.00
2018-04-10T09:01:42.331Z,62.50
2018-04-10T09:04:10.731Z,62.30
2018-04-10T09:06:39.759Z,62.40
2018-04-10T09:09:08.239Z,62.20
2018-04-10T09:11:36.844Z,62.80
2018-04-10T09:14:05.099Z,61.30
2018-04-10T09:16:33.376Z,61.50
2018-04-10T09:19:01.666Z,60.90
2018-04-10T09:21:29.911Z,61.20
2018-04-10T09:23:58.213Z,60.30
2018-04-10T09:26:28.123Z,61.10
2018-04-10T09:28:56.732Z,61.00
2018-04-10T09:31:25.368Z,60.90
2018-04-10T09:33:54.621Z,59.30
2018-04-10T09:36:22.872Z,59.20
2018-04-10T09:38:51.113Z,57.60
2018-04-10T09:41:20.155Z,57.80
2018-04-10T09:43:48.440Z,57.80
2018-04-10T09:46:16.648Z,57.10
2018-04-10T09:48:45.679Z,56.20
2018-04-10T09:51:13.931Z,56.20
2018-04-10T09:53:42.947Z,55.40
2018-04-10T09:56:11.388Z,55.20
2018-04-10T09:58:39.627Z,54.20
2018-04-10T10:01:07.925Z,52.90
2018-04-10T10:03:36.176Z,53.30
2018-04-10T10:06:04.515Z,53.10
2018-04-10T10:08:33.519Z,51.10
2018-04-10T10:11:02.560Z,48.80
2018-04-10T10:13:30.808Z,48.80
2018-04-10T10:15:59.227Z,47.80
2018-04-10T10:18:27.996Z,48.90
2018-04-10T10:20:56.248Z,47.10
2018-04-10T10:23:24.496Z,48.10
2018-04-10T10:25:53.531Z,47.40
2018-04-10T10:28:21.787Z,47.30
2018-04-10T10:30:50.804Z,45.30
2018-04-10T10:33:19.391Z,45.20
2018-04-10T10:35:47.651Z,46.40
2018-04-10T10:38:15.904Z,45.10
2018-04-10T10:40:45.261Z,45.40
2018-04-10T10:43:13.587Z,45.30
2018-04-10T10:45:42.605Z,45.10
2018-04-10T10:48:10.891Z,44.90
2018-04-10T10:50:39.131Z,45.20
2018-04-10T10:53:07.392Z,45.50
2018-04-10T10:55:35.675Z,44.30
2018-04-10T10:58:03.940Z,41.20
2018-04-10T11:00:32.955Z,44.40
2018-04-10T11:03:01.275Z,44.40
2018-04-10T11:05:29.539Z,40.70
2018-04-10T11:07:57.964Z,42.10
2018-04-10T11:10:26.363Z,38.60
2018-04-10T11:12:55.383Z,38.10
2018-04-10T11:15:23.650Z,38.00
2018-04-10T11:17:51.943Z,40.10
2018-04-10T11:20:20.192Z,41.40
2018-04-10T11:22:49.208Z,41.40
2018-04-10T11:25:17.975Z,41.20
2018-04-10T11:27:46.219Z,40.80
2018-04-10T11:30:14.472Z,40.30
2018-04-10T11:32:42.747Z,40.90
2018-04-10T11:35:11.397Z,39.30
2018-04-10T11:37:40.555Z,39.60
2018-04-10T11:40:08.812Z,39.60
2018-04-10T11:42:37.145Z,40.60
2018-04-10T11:45:06.329Z,36.40
2018-04-10T11:47:34.872Z,36.30
2018-04-10T11:50:03.207Z,37.90
2018-04-10T11:52:32.228Z,37.30
2018-04-10T11:55:00.501Z,37.20
2018-04-10T11:57:28.751Z,38.80
2018-04-10T11:59:56.999Z,38.90
2018-04-10T12:02:25.279Z,39.70
2018-04-10T12:04:55.040Z,39.10
2018-04-10T12:07:24.056Z,39.50
2018-04-10T12:09:52.427Z,39.50
2018-04-10T12:12:20.771Z,40.30
2018-04-10T12:14:49.787Z,39.90
2018-04-10T12:17:18.064Z,39.90
2018-04-10T12:19:46.316Z,39.90
2018-04-10T12:22:14.574Z,39.90
2018-04-10T12:24:42.839Z,40.10
2018-04-10T12:27:13.974Z,40.10
2018-04-10T12:29:42.208Z,40.10
2018-04-10T12:32:10.914Z,40.50
2018-04-10T12:34:39.424Z,40.80
2018-04-10T12:37:08.856Z,40.40
2018-04-10T12:39:37.905Z,39.80
2018-04-10T12:42:06.179Z,39.80
2018-04-10T12:44:34.434Z,40.70
2018-04-10T12:47:02.707Z,41.50
2018-04-10T12:49:31.031Z,40.80
2018-04-10T12:51:59.609Z,41.10
2018-04-10T12:54:28.170Z,41.60
2018-04-10T12:56:56.423Z,41.80
2018-04-10T12:59:24.671Z,41.80
2018-04-10T13:01:52.963Z,41.30
2018-04-10T13:04:21.974Z,41.20
2018-04-10T13:06:50.237Z,41.10
2018-04-10T13:09:18.511Z,41.40
2018-04-10T13:11:46.952Z,41.90
2018-04-10T13:14:15.179Z,41.90
2018-04-10T13:16:43.590Z,41.80
2018-04-10T13:19:11.885Z,41.90
2018-04-10T13:21:40.107Z,42.10
2018-04-10T13:24:08.390Z,42.00
2018-04-10T13:26:36.654Z,42.00
2018-04-10T13:29:04.985Z,42.00
2018-04-10T13:31:33.252Z,42.10
2018-04-10T13:34:01.495Z,42.00
2018-04-10T13:36:29.747Z,42.30
2018-04-10T13:38:58.703Z,42.20
2018-04-10T13:41:26.966Z,42.20
2018-04-10T13:43:55.368Z,41.80
2018-04-10T13:46:23.667Z,41.90
2018-04-10T13:48:52.140Z,42.00
2018-04-10T13:51:20.393Z,41.90
2018-04-10T13:53:48.660Z,42.00
2018-04-10T13:56:16.907Z,42.00
2018-04-10T13:58:45.159Z,41.80
2018-04-10T14:01:13.790Z,41.70
2018-04-10T14:03:43.027Z,41.80
2018-04-10T14:06:11.350Z,41.60
2018-04-10T14:08:39.616Z,41.60
2018-04-10T14:11:07.871Z,41.90
2018-04-10T14:13:36.119Z,42.00
2018-04-10T14:16:05.721Z,41.90
2018-04-10T14:18:33.967Z,41.90
2018-04-10T14:21:02.294Z,41.60
2018-04-10T14:23:30.832Z,41.80
2018-04-10T14:25:59.087Z,41.70
2018-04-10T14:28:27.434Z,41.60
2018-04-10T14:30:55.719Z,41.70
2018-04-10T14:33:24.078Z,41.40
2018-04-10T14:35:52.315Z,41.40
2018-04-10T14:38:20.673Z,41.00
2018-04-10T14:40:49.687Z,41.20
2018-04-10T14:43:18.043Z,41.20
2018-04-10T14:45:47.391Z,41.30
2018-04-10T14:48:15.647Z,41.30
2018-04-10T14:50:44.095Z,41.00
2018-04-10T14:53:12.347Z,41.40
2018-04-10T14:55:42.123Z,41.40
2018-04-10T14:58:10.443Z,41.40
2018-04-10T15:00:38.716Z,41.10
2018-04-10T15:03:09.656Z,41.10
2018-04-10T15:05:37.907Z,41.10
2018-04-10T15:08:06.608Z,40.70
2018-04-10T15:10:34.847Z,40.30
2018-04-10T15:13:03.284Z,40.10
2018-04-10T15:15:32.359Z,40.80
2018-04-10T15:18:00.714Z,40.80
2018-04-10T15:20:30.826Z,40.70
2018-04-10T15:23:00.271Z,40.60
2018-04-10T15:25:30.039Z,40.80
2018-04-10T15:27:58.365Z,40.60
2018-04-10T15:30:26.843Z,40.60
2018-04-10T15:32:56.044Z,40.90
2018-04-10T15:35:24.420Z,41.50
2018-04-10T15:37:54.404Z,40.90
2018-04-10T15:40:22.876Z,40.80
2018-04-10T15:42:51.123Z,39.20
2018-04-10T15:45:20.161Z,39.40
2018-04-10T15:47:48.420Z,39.40
2018-04-10T15:50:16.671Z,40.00
2018-04-10T15:52:45.292Z,39.50
2018-04-10T15:55:13.551Z,39.00
2018-04-10T15:57:41.979Z,39.10
2018-04-10T16:00:10.256Z,39.40
2018-04-10T16:02:38.523Z,39.30
2018-04-10T16:05:06.763Z,38.50
2018-04-10T16:07:35.768Z,38.70
2018-04-10T16:10:04.019Z,38.60
2018-04-10T16:12:32.267Z,38.30
2018-04-10T16:15:00.703Z,38.40
2018-04-10T16:17:29.211Z,38.90
2018-04-10T16:19:57.444Z,37.80
2018-04-10T16:22:25.795Z,37.80
2018-04-10T16:24:54.815Z,40.10
2018-04-10T16:27:23.071Z,40.20
2018-04-10T16:29:51.343Z,40.70
2018-04-10T16:32:19.599Z,41.30
2018-04-10T16:34:47.977Z,41.70
2018-04-10T16:37:16.431Z,42.00
2018-04-10T16:39:44.698Z,42.10
2018-04-10T16:42:13.124Z,42.10
2018-04-10T16:44:41.399Z,42.30
2018-04-10T16:47:09.918Z,42.10
2018-04-10T16:49:38.167Z,42.40
2018-04-10T16:52:06.446Z,42.40
2018-04-10T16:54:34.698Z,42.70
2018-04-10T16:57:02.947Z,42.50
2018-04-10T16:59:31.532Z,42.60
2018-04-10T17:01:59.986Z,42.60
2018-04-10T17:04:28.219Z,42.90
2018-04-10T17:06:56.626Z,43.40
2018-04-10T17:09:25.656Z,43.30
2018-04-10T17:11:53.968Z,43.30
2018-04-10T17:14:22.380Z,43.30
2018-04-10T17:16:51.415Z,43.50
2018-04-10T17:19:19.772Z,43.50
2018-04-10T17:21:48.296Z,43.40
2018-04-10T17:24:16.528Z,43.40
2018-04-10T17:26:44.783Z,43.40
2018-04-10T17:29:13.276Z,43.20
2018-04-10T17:31:41.815Z,43.30
2018-04-10T17:34:10.076Z,43.40
2018-04-10T17:36:38.348Z,43.40
2018-04-10T17:39:06.606Z,44.60
2018-04-10T17:41:34.855Z,44.70
2018-04-10T17:44:04.198Z,45.70
2018-04-10T17:46:32.536Z,45.60
2018-04-10T17:49:00.883Z,46.00
2018-04-10T17:51:29.287Z,46.20
2018-04-10T17:53:58.300Z,47.10
2018-04-10T17:56:26.584Z,47.00
2018-04-10T17:58:54.864Z,46.90
2018-04-10T18:01:23.136Z,47.30
2018-04-10T18:03:52.275Z,48.00
2018-04-10T18:06:20.844Z,47.90
2018-04-10T18:08:49.089Z,48.30
2018-04-10T18:11:17.330Z,48.60
2018-04-10T18:13:46.368Z,48.60
2018-04-10T18:16:14.603Z,48.60
2018-04-10T18:18:42.867Z,49.20
2018-04-10T18:21:11.184Z,49.00
2018-04-10T18:23:39.391Z,48.70
2018-04-10T18:26:07.636Z,49.80
2018-04-10T18:28:36.255Z,49.50
2018-04-10T18:31:04.551Z,50.50
2018-04-10T18:33:32.831Z,50.20
2018-04-10T18:36:01.093Z,50.40
2018-04-10T18:38:29.331Z,50.90
2018-04-10T18:40:57.567Z,50.40
2018-04-10T18:43:25.840Z,50.70
2018-04-10T18:45:54.223Z,51.00
2018-04-10T18:48:22.604Z,51.20
2018-04-10T18:50:51.359Z,50.50
2018-04-10T18:53:19.659Z,50.00
2018-04-10T18:55:48.242Z,51.00
2018-04-10T18:58:16.505Z,51.90
2018-04-10T19:00:44.826Z,53.30
2018-04-10T19:03:13.989Z,55.80
2018-04-10T19:05:43.156Z,55.90
2018-04-10T19:08:11.464Z,60.00
2018-04-10T19:10:39.699Z,61.50
2018-04-10T19:13:08.311Z,63.00
2018-04-10T19:15:36.547Z,63.40
2018-04-10T19:18:04.836Z,64.40
2018-04-10T19:20:33.565Z,62.80
2018-04-10T19:23:01.831Z,59.50
2018-04-10T19:25:30.121Z,64.60
2018-04-10T19:27:58.389Z,65.00
2018-04-10T19:30:26.638Z,66.30
2018-04-10T19:32:55.015Z,74.20
2018-04-10T19:35:23.331Z,87.30
2018-04-10T19:37:51.575Z,90.60
2018-04-10T19:40:19.828Z,93.30
2018-04-10T19:42:48.843Z,94.30
2018-04-10T19:45:17.151Z,94.10
2018-04-10T19:47:45.882Z,95.10
2018-04-10T19:50:14.911Z,93.70
2018-04-10T19:52:43.153Z,93.60
2018-04-10T19:55:11.399Z,93.70
2018-04-10T19:57:39.868Z,92.20
2018-04-10T20:00:08.187Z,91.40
2018-04-10T20:02:36.423Z,91.70
2018-04-10T20:05:04.689Z,90.50
2018-04-10T20:07:32.930Z,90.80
2018-04-10T20:10:01.326Z,90.20
2018-04-10T20:12:29.577Z,88.30
2018-04-10T20:14:58.017Z,90.40
2018-04-10T20:17:26.395Z,89.20
2018-04-10T20:19:54.711Z,89.60
2018-04-10T20:22:22.955Z,83.90
2018-04-10T20:24:51.195Z,83.80
2018-04-10T20:27:19.761Z,82.50
2018-04-10T20:29:47.955Z,81.90
2018-04-10T20:32:16.219Z,81.80
2018-04-10T20:34:44.504Z,82.00
2018-04-10T20:37:13.115Z,81.20
2018-04-10T20:39:41.359Z,80.20
2018-04-10T20:42:09.955Z,79.50
2018-04-10T20:44:38.199Z,79.00
2018-04-10T20:47:06.530Z,78.50
2018-04-10T20:49:34.775Z,79.00
2018-04-10T20:52:03.123Z,82.10
2018-04-10T20:54:32.139Z,83.80
2018-04-10T20:57:00.418Z,83.80
2018-04-10T20:59:28.651Z,84.50
2018-04-10T21:01:57.044Z,85.80
2018-04-10T21:04:26.287Z,92.00
2018-04-10T21:06:54.896Z,91.90
2018-04-10T21:09:23.182Z,92.90
2018-04-10T21:11:51.441Z,93.70
2018-04-10T21:14:19.698Z,93.60
2018-04-10T21:16:48.131Z,93.50
2018-04-10T21:19:16.503Z,94.10
2018-04-10T21:21:44.872Z,93.80
2018-04-10T21:24:13.251Z,93.40
2018-04-10T21:26:41.572Z,93.80
2018-04-10T21:29:09.811Z,93.80
2018-04-10T21:31:38.819Z,93.50
2018-04-10T21:34:07.269Z,93.50
2018-04-10T21:36:35.492Z,93.70
2018-04-10T21:39:04.499Z,93.10
2018-04-10T21:41:32.762Z,93.00
2018-04-10T21:44:00.999Z,92.80
2018-04-10T21:46:29.244Z,93.10
2018-04-10T21:48:58.091Z,92.80
2018-04-10T21:51:26.338Z,93.10
2018-04-10T21:53:54.571Z,92.20
2018-04-10T21:56:22.843Z,92.70
2018-04-10T21:58:51.080Z,93.10
2018-04-10T22:01:19.541Z,90.80
2018-04-10T22:03:47.808Z,91.20
2018-04-10T22:06:16.051Z,92.50
2018-04-10T22:08:44.316Z,92.30
2018-04-10T22:11:12.958Z,91.40
2018-04-10T22:13:41.179Z,91.80
2018-04-10T22:16:10.495Z,91.60
2018-04-10T22:18:38.768Z,91.50
2018-04-10T22:21:07.004Z,91.20
2018-04-10T22:23:35.243Z,90.80
2018-04-10T22:26:03.764Z,90.80
2018-04-10T22:28:31.999Z,91.40
2018-04-10T22:31:00.248Z,90.80
2018-04-10T22:33:29.193Z,92.20
2018-04-10T22:35:57.443Z,91.20
2018-04-10T22:38:25.692Z,88.70
2018-04-10T22:40:53.951Z,91.00
2018-04-10T22:43:22.196Z,90.80
2018-04-10T22:45:50.434Z,90.60
2018-04-10T22:48:18.695Z,90.20
2018-04-10T22:50:46.971Z,90.70
2018-04-10T22:53:15.213Z,91.10
2018-04-10T22:55:44.552Z,92.10
2018-04-10T22:58:12.800Z,92.00
2018-04-10T23:00:45.743Z,92.40
2018-04-10T23:03:13.982Z,92.20
2018-04-10T23:05:42.224Z,92.60
2018-04-10T23:08:10.510Z,92.70
2018-04-10T23:10:38.747Z,93.70
2018-04-10T23:13:06.988Z,94.40
2018-04-10T23:15:35.607Z,93.40
2018-04-10T23:18:03.875Z,93.90
2018-04-10T23:20:32.111Z,93.20
2018-04-10T23:23:00.379Z,92.70
2018-04-10T23:25:28.615Z,92.80
2018-04-10T23:27:56.853Z,94.40
2018-04-10T23:30:25.879Z,93.90
2018-04-10T23:32:54.123Z,93.90
2018-04-10T23:35:22.361Z,92.20
2018-04-10T23:37:51.038Z,93.40
2018-04-10T23:40:19.271Z,94.60
2018-04-10T23:42:47.516Z,93.00
2018-04-10T23:45:15.777Z,91.00
2018-04-10T23:47:44.027Z,92.50
2018-04-10T23:50:12.380Z,91.00
2018-04-10T23:52:40.979Z,91.00
2018-04-10T23:55:09.215Z,91.20
2018-04-10T23:57:37.454Z,91.90
